createdAt,value
2019-01-22T00:00:01.260Z,91.00
2019-01-22T00:02:33.355Z,91.10
2019-01-22T00:05:04.115Z,90.90
2019-01-22T00:07:34.924Z,90.60
2019-01-22T00:10:06.645Z,90.70
2019-01-22T00:12:37.385Z,91.00
2019-01-22T00:15:09.618Z,90.80
2019-01-22T00:17:40.668Z,90.40
2019-01-22T00:20:11.969Z,90.50
2019-01-22T00:22:43.491Z,90.60
2019-01-22T00:25:14.495Z,90.40
2019-01-22T00:27:45.206Z,90.40
2019-01-22T00:30:17.232Z,90.40
2019-01-22T00:32:48.187Z,90.40
2019-01-22T00:35:18.769Z,90.50
2019-01-22T00:37:49.295Z,90.40
2019-01-22T00:40:20.166Z,90.70
2019-01-22T00:42:50.787Z,90.50
2019-01-22T00:45:21.355Z,90.50
2019-01-22T00:47:52.015Z,90.80
2019-01-22T00:50:23.145Z,90.90
2019-01-22T00:52:54.019Z,90.90
2019-01-22T00:55:24.804Z,90.30
2019-01-22T00:57:55.440Z,91.30
2019-01-22T01:00:28.965Z,91.20
2019-01-22T01:02:59.904Z,91.20
2019-01-22T01:05:31.525Z,91.10
2019-01-22T01:08:02.356Z,90.90
2019-01-22T01:10:33.259Z,90.30
2019-01-22T01:13:04.379Z,91.50
2019-01-22T01:15:35.361Z,91.60
2019-01-22T01:18:07.110Z,91.50
2019-01-22T01:20:37.678Z,91.30
2019-01-22T01:23:08.426Z,91.40
2019-01-22T01:25:39.004Z,91.20
2019-01-22T01:28:09.576Z,91.50
2019-01-22T01:30:40.509Z,91.00
2019-01-22T01:33:11.031Z,90.90
2019-01-22T01:35:41.777Z,91.20
2019-01-22T01:38:13.478Z,90.60
2019-01-22T01:40:44.226Z,90.50
2019-01-22T01:43:14.889Z,90.50
2019-01-22T01:45:45.494Z,89.60
2019-01-22T01:48:15.962Z,89.80
2019-01-22T01:50:46.594Z,90.30
2019-01-22T01:53:23.660Z,90.30
2019-01-22T01:55:49.437Z,90.50
2019-01-22T01:58:19.976Z,90.00
2019-01-22T02:00:50.484Z,90.70
2019-01-22T02:03:21.092Z,91.00
2019-01-22T02:05:51.785Z,91.30
2019-01-22T02:08:22.423Z,91.00
2019-01-22T02:10:53.018Z,91.10
2019-01-22T02:13:36.751Z,91.20
2019-01-22T02:17:06.573Z,90.90
2019-01-22T02:20:06.203Z,90.50
2019-01-22T02:23:30.604Z,90.70
2019-01-22T02:26:20.269Z,90.80
2019-01-22T02:29:17.867Z,90.00
2019-01-22T02:32:38.581Z,89.40
2019-01-22T02:35:35.113Z,90.40
2019-01-22T02:38:45.154Z,90.40
2019-01-22T02:41:29.338Z,90.40
2019-01-22T02:44:34.940Z,90.60
2019-01-22T02:47:23.045Z,90.70
2019-01-22T02:50:46.531Z,90.80
2019-01-22T02:53:41.190Z,91.40
2019-01-22T02:56:52.940Z,90.20
2019-01-22T02:59:59.844Z,90.60
2019-01-22T03:02:59.576Z,91.70
2019-01-22T03:06:17.531Z,91.60
2019-01-22T03:09:18.516Z,91.30
2019-01-22T03:12:39.058Z,90.70
2019-01-22T03:15:56.726Z,91.00
2019-01-22T03:18:52.310Z,91.30
2019-01-22T03:22:14.509Z,90.80
2019-01-22T03:25:22.107Z,91.00
2019-01-22T03:28:26.321Z,91.10
2019-01-22T03:31:28.980Z,90.90
2019-01-22T03:34:50.077Z,90.80
2019-01-22T03:37:38.353Z,90.20
2019-01-22T03:40:24.637Z,90.20
2019-01-22T03:43:13.094Z,90.30
2019-01-22T03:45:53.495Z,89.40
2019-01-22T03:49:03.157Z,89.60
2019-01-22T03:51:57.408Z,88.80
2019-01-22T03:55:05.789Z,90.40
2019-01-22T03:58:03.286Z,90.90
2019-01-22T04:00:46.091Z,90.80
2019-01-22T04:03:19.555Z,90.80
2019-01-22T04:05:52.583Z,90.80
2019-01-22T04:08:23.332Z,90.70
2019-01-22T04:11:07.520Z,91.10
2019-01-22T04:13:38.460Z,90.80
2019-01-22T04:16:09.104Z,90.40
2019-01-22T04:18:39.969Z,90.70
2019-01-22T04:21:13.981Z,90.70
2019-01-22T04:24:18.213Z,90.90
2019-01-22T04:27:27.208Z,90.20
2019-01-22T04:30:52.968Z,90.60
2019-01-22T04:34:06.658Z,90.70
2019-01-22T04:37:06.519Z,90.60
2019-01-22T04:40:01.598Z,90.30
2019-01-22T04:42:43.490Z,89.80
2019-01-22T04:45:42.846Z,90.00
2019-01-22T04:48:59.555Z,90.40
2019-01-22T04:51:58.816Z,89.20
2019-01-22T04:54:37.589Z,90.10
2019-01-22T04:57:19.861Z,90.20
2019-01-22T05:00:46.750Z,90.60
2019-01-22T05:03:41.028Z,90.50
2019-01-22T05:06:44.997Z,90.30
2019-01-22T05:10:01.114Z,90.50
2019-01-22T05:13:03.908Z,90.10
2019-01-22T05:15:59.196Z,90.60
2019-01-22T05:19:04.135Z,90.40
2019-01-22T05:22:20.794Z,89.80
2019-01-22T05:25:09.659Z,90.20
2019-01-22T05:28:19.345Z,89.60
2019-01-22T05:31:26.839Z,90.00
2019-01-22T05:34:23.405Z,90.30
2019-01-22T05:37:10.472Z,89.60
2019-01-22T05:40:02.314Z,89.50
2019-01-22T05:43:06.162Z,90.30
2019-01-22T05:46:16.514Z,90.00
2019-01-22T05:49:33.154Z,90.20
2019-01-22T05:52:18.912Z,90.20
2019-01-22T05:55:22.938Z,90.20
2019-01-22T05:58:48.771Z,89.80
2019-01-22T06:01:31.419Z,90.20
2019-01-22T06:04:47.946Z,90.30
2019-01-22T06:07:45.511Z,89.80
2019-01-22T06:10:59.096Z,90.00
2019-01-22T06:14:01.481Z,90.00
2019-01-22T06:17:21.224Z,89.20
2019-01-22T06:20:32.425Z,88.60
2019-01-22T06:23:49.254Z,87.50
2019-01-22T06:26:45.597Z,87.70
2019-01-22T06:29:56.446Z,87.40
2019-01-22T06:33:03.937Z,88.60
2019-01-22T06:36:03.236Z,89.30
2019-01-22T06:39:02.242Z,88.70
2019-01-22T06:42:09.777Z,89.10
2019-01-22T06:45:10.249Z,87.70
2019-01-22T06:48:18.503Z,86.30
2019-01-22T06:51:45.163Z,86.70
2019-01-22T06:55:02.518Z,86.90
2019-01-22T06:58:12.087Z,87.10
2019-01-22T07:01:28.216Z,86.50
2019-01-22T07:04:41.282Z,86.50
2019-01-22T07:07:48.199Z,87.20
2019-01-22T07:10:59.999Z,85.00
2019-01-22T07:14:18.867Z,85.00
2019-01-22T07:17:29.242Z,85.60
2019-01-22T07:20:33.840Z,86.60
2019-01-22T07:23:44.454Z,88.70
2019-01-22T07:26:29.311Z,89.40
2019-01-22T07:29:51.950Z,87.70
2019-01-22T07:33:16.073Z,87.60
2019-01-22T07:36:36.420Z,85.90
2019-01-22T07:39:26.059Z,87.60
2019-01-22T07:42:31.720Z,87.10
2019-01-22T07:45:58.752Z,88.90
2019-01-22T07:48:36.373Z,89.60
2019-01-22T07:51:49.239Z,90.00
2019-01-22T07:55:03.393Z,88.60
2019-01-22T07:58:09.514Z,89.00
2019-01-22T08:01:15.651Z,88.20
2019-01-22T08:04:32.212Z,87.70
2019-01-22T08:07:45.921Z,87.20
2019-01-22T08:10:48.439Z,83.90
2019-01-22T08:13:34.619Z,82.80
2019-01-22T08:16:51.980Z,82.80
2019-01-22T08:20:08.967Z,83.30
2019-01-22T08:23:36.160Z,83.50
2019-01-22T08:26:38.915Z,84.40
2019-01-22T08:29:44.231Z,84.00
2019-01-22T08:33:10.998Z,84.20
2019-01-22T08:36:07.688Z,83.00
2019-01-22T08:39:10.858Z,83.00
2019-01-22T08:42:14.300Z,82.40
2019-01-22T08:45:22.844Z,83.60
2019-01-22T08:48:31.928Z,82.10
2019-01-22T08:51:29.306Z,81.90
2019-01-22T08:54:39.805Z,83.20
2019-01-22T08:57:27.486Z,83.90
2019-01-22T09:00:28.309Z,84.00
2019-01-22T09:03:33.961Z,84.30
2019-01-22T09:06:28.363Z,84.00
2019-01-22T09:09:36.518Z,84.80
2019-01-22T09:12:25.231Z,84.00
2019-01-22T09:15:35.342Z,84.80
2019-01-22T09:18:38.795Z,82.40
2019-01-22T09:21:58.083Z,80.80
2019-01-22T09:25:05.289Z,79.20
2019-01-22T09:28:07.905Z,81.30
2019-01-22T09:31:12.333Z,81.50
2019-01-22T09:34:27.052Z,83.20
2019-01-22T09:37:15.043Z,83.80
2019-01-22T09:39:45.689Z,84.90
2019-01-22T09:42:16.506Z,85.50
2019-01-22T09:44:47.397Z,84.20
2019-01-22T09:47:17.964Z,83.10
2019-01-22T09:49:48.845Z,82.50
2019-01-22T09:52:19.582Z,82.20
2019-01-22T09:54:50.598Z,84.20
2019-01-22T09:57:21.243Z,82.00
2019-01-22T09:59:51.862Z,81.20
2019-01-22T10:02:22.483Z,78.70
2019-01-22T10:04:53.233Z,77.20
2019-01-22T10:07:23.857Z,76.70
2019-01-22T10:09:54.524Z,75.70
2019-01-22T10:12:25.291Z,76.20
2019-01-22T10:14:56.152Z,78.40
2019-01-22T10:17:27.342Z,79.10
2019-01-22T10:19:58.286Z,79.10
2019-01-22T10:22:29.197Z,77.80
2019-01-22T10:25:00.234Z,74.60
2019-01-22T10:27:30.892Z,75.10
2019-01-22T10:30:01.941Z,75.80
2019-01-22T10:32:32.725Z,76.30
2019-01-22T10:35:03.295Z,76.40
2019-01-22T10:37:33.847Z,74.40
2019-01-22T10:40:05.577Z,74.50
2019-01-22T10:42:36.462Z,74.30
2019-01-22T10:45:09.583Z,73.40
2019-01-22T10:47:40.543Z,75.20
2019-01-22T10:50:11.961Z,76.10
2019-01-22T10:52:44.438Z,78.30
2019-01-22T10:55:17.130Z,80.00
2019-01-22T10:57:48.122Z,78.10
2019-01-22T11:00:37.283Z,77.70
2019-01-22T11:03:08.922Z,78.00
2019-01-22T11:05:42.241Z,77.70
2019-01-22T11:08:13.043Z,78.10
2019-01-22T11:10:44.070Z,78.10
2019-01-22T11:13:15.224Z,78.10
2019-01-22T11:15:46.041Z,78.20
2019-01-22T11:18:16.860Z,76.50
2019-01-22T11:20:47.953Z,76.20
2019-01-22T11:23:18.882Z,77.60
2019-01-22T11:25:49.846Z,78.50
2019-01-22T11:28:20.764Z,78.00
2019-01-22T11:30:52.182Z,78.40
2019-01-22T11:33:23.038Z,78.40
2019-01-22T11:35:54.072Z,77.30
2019-01-22T11:38:24.940Z,78.20
2019-01-22T11:40:55.539Z,79.20
2019-01-22T11:43:26.394Z,78.00
2019-01-22T11:45:58.180Z,79.60
2019-01-22T11:48:28.810Z,78.30
2019-01-22T11:50:59.436Z,78.50
2019-01-22T11:53:30.269Z,80.20
2019-01-22T11:56:01.266Z,80.70
2019-01-22T11:58:32.318Z,80.60
2019-01-22T12:01:06.162Z,80.50
2019-01-22T12:03:37.006Z,82.20
2019-01-22T12:06:07.910Z,82.40
2019-01-22T12:08:39.574Z,81.60
2019-01-22T12:11:12.267Z,80.90
2019-01-22T12:13:43.375Z,82.10
2019-01-22T12:16:14.147Z,81.50
2019-01-22T12:18:45.257Z,81.60
2019-01-22T12:21:15.976Z,82.00
2019-01-22T12:23:46.889Z,81.60
2019-01-22T12:26:17.500Z,82.70
2019-01-22T12:28:49.415Z,80.50
2019-01-22T12:31:20.632Z,80.00
2019-01-22T12:33:51.199Z,80.40
2019-01-22T12:36:23.616Z,80.70
2019-01-22T12:38:54.423Z,80.90
2019-01-22T12:41:24.992Z,81.40
2019-01-22T12:43:55.724Z,81.40
2019-01-22T12:46:26.596Z,81.30
2019-01-22T12:48:57.271Z,81.60
2019-01-22T12:51:28.049Z,81.40
2019-01-22T12:53:58.728Z,80.90
2019-01-22T12:56:29.764Z,80.50
2019-01-22T12:59:02.087Z,81.40
2019-01-22T13:01:32.962Z,81.50
2019-01-22T13:04:03.702Z,81.50
2019-01-22T13:06:34.445Z,83.00
2019-01-22T13:09:07.587Z,84.40
2019-01-22T13:11:38.437Z,83.20
2019-01-22T13:14:09.169Z,82.10
2019-01-22T13:16:40.027Z,82.70
2019-01-22T13:19:10.631Z,83.60
2019-01-22T13:21:41.699Z,82.80
2019-01-22T13:24:12.416Z,83.20
2019-01-22T13:26:43.224Z,84.00
2019-01-22T13:29:13.754Z,84.30
2019-01-22T13:31:44.586Z,84.20
2019-01-22T13:34:15.953Z,83.60
2019-01-22T13:36:46.781Z,82.90
2019-01-22T13:39:17.484Z,83.10
2019-01-22T13:41:48.205Z,84.40
2019-01-22T13:44:18.833Z,85.60
2019-01-22T13:46:49.923Z,84.90
2019-01-22T13:49:20.894Z,85.60
2019-01-22T13:51:51.570Z,85.40
2019-01-22T13:54:22.323Z,85.90
2019-01-22T13:56:53.115Z,85.00
2019-01-22T13:59:23.819Z,85.80
2019-01-22T14:01:54.401Z,87.30
2019-01-22T14:04:24.963Z,87.20
2019-01-22T14:06:55.602Z,87.70
2019-01-22T14:09:26.545Z,87.60
2019-01-22T14:11:57.070Z,87.50
2019-01-22T14:14:27.643Z,87.10
2019-01-22T14:16:58.446Z,87.60
2019-01-22T14:19:29.062Z,88.50
2019-01-22T14:21:59.945Z,88.50
2019-01-22T14:24:30.997Z,89.00
2019-01-22T14:27:01.802Z,90.00
2019-01-22T14:29:32.690Z,90.10
2019-01-22T14:32:03.441Z,90.40
2019-01-22T14:34:34.276Z,90.40
2019-01-22T14:37:04.914Z,90.40
2019-01-22T14:39:35.659Z,90.30
2019-01-22T14:42:06.603Z,90.40
2019-01-22T14:44:37.194Z,90.30
2019-01-22T14:47:07.934Z,90.40
2019-01-22T14:49:38.892Z,90.90
2019-01-22T14:52:09.384Z,91.40
2019-01-22T14:54:40.197Z,91.20
2019-01-22T14:57:10.794Z,91.10
2019-01-22T14:59:43.166Z,91.30
2019-01-22T15:02:13.788Z,90.60
2019-01-22T15:04:44.410Z,90.90
2019-01-22T15:07:15.144Z,90.90
2019-01-22T15:09:45.951Z,90.70
2019-01-22T15:12:16.716Z,90.30
2019-01-22T15:14:47.325Z,90.40
2019-01-22T15:17:17.910Z,90.40
2019-01-22T15:19:48.772Z,90.70
2019-01-22T15:22:19.919Z,90.00
2019-01-22T15:24:50.511Z,90.40
2019-01-22T15:27:21.485Z,90.90
2019-01-22T15:29:53.857Z,90.90
2019-01-22T15:32:24.313Z,90.50
2019-01-22T15:34:54.964Z,90.80
2019-01-22T15:37:25.556Z,90.80
2019-01-22T15:39:56.544Z,90.80
2019-01-22T15:42:27.246Z,91.50
2019-01-22T15:44:57.917Z,91.60
2019-01-22T15:47:28.699Z,91.30
2019-01-22T15:49:59.514Z,91.60
2019-01-22T15:52:30.253Z,91.30
2019-01-22T15:55:01.446Z,91.40
2019-01-22T15:57:32.191Z,90.80
2019-01-22T16:00:03.600Z,91.10
2019-01-22T16:02:34.333Z,91.60
2019-01-22T16:05:06.026Z,91.40
2019-01-22T16:07:36.780Z,91.40
2019-01-22T16:10:08.870Z,91.50
2019-01-22T16:12:39.552Z,91.50
2019-01-22T16:15:13.170Z,91.60
2019-01-22T16:17:44.030Z,91.90
2019-01-22T16:20:22.603Z,92.50
2019-01-22T16:22:53.704Z,92.20
2019-01-22T16:25:24.677Z,92.40
2019-01-22T16:27:55.413Z,92.50
2019-01-22T16:30:27.274Z,92.50
2019-01-22T16:32:58.296Z,92.30
2019-01-22T16:35:29.766Z,91.90
2019-01-22T16:38:00.374Z,91.00
2019-01-22T16:40:31.207Z,91.90
2019-01-22T16:43:01.943Z,91.80
2019-01-22T16:45:35.253Z,92.30
2019-01-22T16:48:08.183Z,92.50
2019-01-22T16:50:43.492Z,92.10
2019-01-22T16:53:19.121Z,92.30
2019-01-22T16:55:50.010Z,92.40
2019-01-22T16:58:20.771Z,91.60
2019-01-22T17:00:51.762Z,91.50
2019-01-22T17:03:22.595Z,92.00
2019-01-22T17:05:53.601Z,91.70
2019-01-22T17:08:24.303Z,91.30
2019-01-22T17:10:56.361Z,91.30
2019-01-22T17:13:27.120Z,92.20
2019-01-22T17:15:58.024Z,92.70
2019-01-22T17:18:29.101Z,92.40
2019-01-22T17:20:59.863Z,91.50
2019-01-22T17:23:30.685Z,91.60
2019-01-22T17:26:01.612Z,92.00
2019-01-22T17:28:32.361Z,91.80
2019-01-22T17:31:08.559Z,92.10
2019-01-22T17:33:43.533Z,91.50
2019-01-22T17:36:14.340Z,91.60
2019-01-22T17:38:45.711Z,91.60
2019-01-22T17:41:16.434Z,91.70
2019-01-22T17:43:47.264Z,91.70
2019-01-22T17:46:18.823Z,91.50
2019-01-22T17:48:49.388Z,91.40
2019-01-22T17:51:21.179Z,91.30
2019-01-22T17:53:52.298Z,91.60
2019-01-22T17:56:23.029Z,91.50
2019-01-22T17:58:53.908Z,91.20
2019-01-22T18:01:24.826Z,91.20
2019-01-22T18:03:55.516Z,91.00
2019-01-22T18:06:26.507Z,91.00
2019-01-22T18:08:57.006Z,91.10
2019-01-22T18:11:28.357Z,91.20
2019-01-22T18:13:59.102Z,91.50
2019-01-22T18:16:29.858Z,91.50
2019-01-22T18:19:00.791Z,91.70
2019-01-22T18:21:31.467Z,91.10
2019-01-22T18:24:02.466Z,90.90
2019-01-22T18:26:33.429Z,91.20
2019-01-22T18:29:04.354Z,91.30
2019-01-22T18:31:35.313Z,91.00
2019-01-22T18:34:07.377Z,90.50
2019-01-22T18:36:37.983Z,91.00
2019-01-22T18:39:09.380Z,90.90
2019-01-22T18:41:40.046Z,90.90
2019-01-22T18:44:10.611Z,91.30
2019-01-22T18:46:41.198Z,91.20
2019-01-22T18:49:11.678Z,91.50
2019-01-22T18:51:42.216Z,91.30
2019-01-22T18:54:13.335Z,91.20
2019-01-22T18:56:44.054Z,91.20
2019-01-22T18:59:14.628Z,91.00
2019-01-22T19:01:45.502Z,91.50
2019-01-22T19:04:16.192Z,91.90
2019-01-22T19:06:47.954Z,91.60
2019-01-22T19:09:18.552Z,91.20
2019-01-22T19:11:49.447Z,91.00
2019-01-22T19:14:20.412Z,90.90
2019-01-22T19:16:51.146Z,91.00
2019-01-22T19:19:22.466Z,91.00
2019-01-22T19:21:53.116Z,90.80
2019-01-22T19:24:23.719Z,90.70
2019-01-22T19:26:54.435Z,90.50
2019-01-22T19:29:25.422Z,90.50
2019-01-22T19:31:57.807Z,90.90
2019-01-22T19:34:28.598Z,91.00
2019-01-22T19:36:59.265Z,91.00
2019-01-22T19:39:30.080Z,90.80
2019-01-22T19:42:00.689Z,90.80
2019-01-22T19:44:31.660Z,90.70
2019-01-22T19:47:02.503Z,91.00
2019-01-22T19:49:33.678Z,91.10
2019-01-22T19:52:04.531Z,91.00
2019-01-22T19:54:35.686Z,90.50
2019-01-22T19:57:06.427Z,90.80
2019-01-22T19:59:37.034Z,91.00
2019-01-22T20:02:08.056Z,90.80
2019-01-22T20:04:38.689Z,90.90
2019-01-22T20:07:09.724Z,90.40
2019-01-22T20:09:40.655Z,90.80
2019-01-22T20:12:12.372Z,90.50
2019-01-22T20:14:43.176Z,91.00
2019-01-22T20:17:14.146Z,91.10
2019-01-22T20:19:45.745Z,91.00
2019-01-22T20:22:16.317Z,91.40
2019-01-22T20:24:47.933Z,91.20
2019-01-22T20:27:18.800Z,91.30
2019-01-22T20:29:52.663Z,91.10
2019-01-22T20:32:23.301Z,91.00
2019-01-22T20:34:54.154Z,90.40
2019-01-22T20:37:24.785Z,90.80
2019-01-22T20:39:55.334Z,90.70
2019-01-22T20:42:26.057Z,90.40
2019-01-22T20:44:56.873Z,90.80
2019-01-22T20:47:27.697Z,91.30
2019-01-22T20:49:58.345Z,91.30
2019-01-22T20:52:29.258Z,91.00
2019-01-22T20:55:00.196Z,91.00
2019-01-22T20:57:30.883Z,91.30
2019-01-22T21:00:02.086Z,91.40
2019-01-22T21:02:32.909Z,91.50
2019-01-22T21:05:03.780Z,91.50
2019-01-22T21:07:34.389Z,91.40
2019-01-22T21:10:06.855Z,91.20
2019-01-22T21:12:37.974Z,91.30
2019-01-22T21:15:09.744Z,91.80
2019-01-22T21:17:40.666Z,92.00
2019-01-22T21:20:11.813Z,91.70
2019-01-22T21:22:42.762Z,91.30
2019-01-22T21:25:14.829Z,91.30
2019-01-22T21:27:46.865Z,91.40
2019-01-22T21:30:32.109Z,91.40
2019-01-22T21:33:03.667Z,91.60
2019-01-22T21:35:34.429Z,91.50
2019-01-22T21:38:05.942Z,91.30
2019-01-22T21:40:36.889Z,91.50
2019-01-22T21:43:07.917Z,91.50
2019-01-22T21:45:38.691Z,92.20
2019-01-22T21:48:09.426Z,92.30
2019-01-22T21:50:40.202Z,92.00
2019-01-22T21:53:10.955Z,92.40
2019-01-22T21:55:41.785Z,92.60
2019-01-22T21:58:12.395Z,92.60
2019-01-22T22:00:43.009Z,92.30
2019-01-22T22:03:13.562Z,92.20
2019-01-22T22:05:44.390Z,92.00
2019-01-22T22:08:14.869Z,92.80
2019-01-22T22:10:45.814Z,92.60
2019-01-22T22:13:16.569Z,91.90
2019-01-22T22:15:47.732Z,92.10
2019-01-22T22:18:19.242Z,91.80
2019-01-22T22:20:50.448Z,92.20
2019-01-22T22:23:21.301Z,92.30
2019-01-22T22:25:51.876Z,92.30
2019-01-22T22:28:22.707Z,92.00
2019-01-22T22:30:53.487Z,92.20
2019-01-22T22:33:24.054Z,92.40
2019-01-22T22:35:54.914Z,93.10
2019-01-22T22:38:25.471Z,93.00
2019-01-22T22:40:56.165Z,92.60
2019-01-22T22:43:26.710Z,92.60
2019-01-22T22:45:57.464Z,92.30
2019-01-22T22:48:28.121Z,92.90
2019-01-22T22:50:59.392Z,92.80
2019-01-22T22:53:29.943Z,93.00
2019-01-22T22:56:00.506Z,92.60
2019-01-22T22:58:31.180Z,92.50
2019-01-22T23:01:28.759Z,92.30
2019-01-22T23:03:59.481Z,92.30
2019-01-22T23:06:30.200Z,92.10
2019-01-22T23:09:00.762Z,92.20
2019-01-22T23:11:33.112Z,92.40
2019-01-22T23:14:03.587Z,92.30
2019-01-22T23:16:34.187Z,92.30
2019-01-22T23:19:04.911Z,92.60
2019-01-22T23:21:35.625Z,92.90
2019-01-22T23:24:06.138Z,92.50
2019-01-22T23:26:36.799Z,92.60
2019-01-22T23:29:07.427Z,93.10
2019-01-22T23:31:38.574Z,92.70
2019-01-22T23:34:09.306Z,92.60
2019-01-22T23:36:40.275Z,92.60
2019-01-22T23:39:11.094Z,92.60
2019-01-22T23:41:41.931Z,92.80
2019-01-22T23:44:12.620Z,92.70
2019-01-22T23:46:43.578Z,93.00
2019-01-22T23:49:14.806Z,93.00
2019-01-22T23:51:45.715Z,93.10
2019-01-22T23:54:16.226Z,93.30
2019-01-22T23:56:46.906Z,93.00
2019-01-22T23:59:17.799Z,92.70
